Flight Track Log - Related Links

Times and Time Zones

All times are in EDT time to prevent confusion due to time zone crossing. See the LXJ542 flight status page for this flight to view local times or setup timezone preferences in your user account.

Time Position Orientation Groundspeed Altitude Reporting Facility
EDT Latitude Longitude Course Direction KTS MPH feet Rate Location/Type
Wed 09:58:25 AM 42.4667 -71.3000 236° Southwest 169 194 1,200  Level KA90
Wed 09:59:37 AM 42.4333 -71.3667 236° Southwest 218 251 3,100 2,818 Climbing KA90
Wed 10:00:37 AM 42.3667 -71.3167 151° Southeast 289 333 7,400 4,071 Climbing KA90
Wed 10:01:29 AM 42.2983 -71.2611 149° Southeast 322 371 10,700 1,929 Climbing Boston Center
Wed 10:02:29 AM 42.2289 -71.1839 141° Southeast 364 419 11,000 149 Climbing Boston Center
Wed 10:03:30 AM 42.1444 -71.0906 141° Southeast 386 444 11,000 793 Level Boston Center
Wed 10:04:30 AM 42.0597 -70.9972 141° Southeast 391 450 12,600 1,884 Climbing Boston Center
Wed 10:05:31 AM 41.9731 -70.8986 140° Southeast 401 461 14,800 2,390 Climbing Boston Center
Wed 10:06:28 AM 41.8742 -70.8231 150° Southeast 406 467 17,300 2,513 Climbing Boston Center
Wed 10:07:28 AM 41.7728 -70.8811 203° Southwest 363 418 19,700 1,339 Climbing Boston Center
Wed 10:08:29 AM 41.6867 -70.9861 222° Southwest 368 423 20,000 -443 Climbing Boston Center
Wed 10:09:30 AM 41.5983 -71.0828 219° Southwest 399 459 18,800 -1,620 Descending Boston Center
Wed 10:10:09 AM 41.5428 -71.1475 221° Southwest 367 422 17,300 -2,174 Descending Boston Center
Wed 10:10:39 AM 41.5036 -71.1900 219° Southwest 356 410 16,300 -1,902 Descending Boston Center
Wed 10:11:31 AM 41.4419 -71.2631 222° Southwest 375 432 14,700 -1,927 Descending Boston Center
Wed 10:12:28 AM 41.3678 -71.3503 221° Southwest 381 438 12,800 -2,034 Descending Boston Center
Wed 10:13:29 AM 41.2831 -71.4483 221° Southwest 381 438 10,700 -1,438 Descending Boston Center
Wed 10:14:29 AM 41.2275 -71.5319 229° Southwest 358 412 9,900 -1,190 Descending Boston Center
Wed 10:15:30 AM 41.1889 -71.6319 243° Southwest 302 348 8,300 -1,686 Descending Boston Center
Wed 10:16:30 AM 41.1600 -71.7094 244° Southwest 280 322 6,500 -1,091 Descending Boston Center
Wed 10:17:31 AM 41.1231 -71.8064 243° Southwest 269 310 6,100 -252 Descending Boston Center
Wed 10:18:29 AM 41.0964 -71.8783 244° Southwest 263 303 6,000 -51 Descending Boston Center
Wed 10:19:29 AM 41.0614 -71.9611 241° Southwest 258 297 6,000  Level Boston Center
Wed 10:20:30 AM 41.0242 -72.0467 240° Southwest 258 297 6,000 -50 Level Boston Center
Wed 10:21:30 AM 40.9892 -72.1322 242° Southwest 263 303 5,900 -500 Descending Boston Center
Wed 10:22:30 AM 40.9558 -72.2175 243° Southwest 263 303 5,000 -1,017 Descending Boston Center
Wed 10:23:28 AM 40.9206 -72.2972 240° Southwest 263 303 3,900 -1,271 Descending Boston Center
Wed 10:24:28 AM 40.8811 -72.3658 233° Southwest 250 288 2,500 -773 Descending Boston Center
Wed 10:26:11 AM 40.8333 -72.4833 242° Southwest 196 226 1,800 -368 Descending New York TRACON
Wed 10:27:11 AM 40.8000 -72.5500 237° Southwest 195 224 1,500 -600 Descending New York TRACON
Wed 10:28:11 AM 40.8167 -72.6000 294° West 148 170 600 -900 Descending New York TRACON
Wed 10:30:00 AM 40.8437 -72.6318 270° West  Level Estimated
Wed 10:37:00 AM 40.8437 -72.6318 123° Southeast  Level Estimated
Wed 10:38:00 AM 40.8437 -72.6318 123° Southeast  Level Estimated

Login

Don't have an account? Register now (free) for customized features, flight alerts, and more!